Time;durP1;ratioP1;P1;durP2;ratioP2;P2;SDS_P1;SDS_P2;PMS_P1;PMS_P2;Temp;Humidity;BMP_temperature;BMP_pressure;BME280_temperature;BME280_humidity;BME280_pressure;Samples;Min_cycle;Max_cycle;Signal;HPM_P1;HPM_P2
2021/10/27 00:00:10;;;;;;;8.87;7.53;;;6.50;99.90;;;;;;5075094;28;20170;-66
2021/10/27 00:02:36;;;;;;;11.87;8.67;;;6.40;99.90;;;;;;5074909;28;20171;-66
2021/10/27 00:05:04;;;;;;;13.33;9.30;;;6.40;99.90;;;;;;5074834;28;20397;-66
2021/10/27 00:07:30;;;;;;;13.07;8.27;;;6.30;99.90;;;;;;5074755;28;20411;-66
2021/10/27 00:09:55;;;;;;;11.00;8.83;;;6.30;99.90;;;;;;5074877;28;20594;-66
2021/10/27 00:12:21;;;;;;;11.87;9.30;;;6.30;99.90;;;;;;5074609;28;20952;-66
2021/10/27 00:14:47;;;;;;;11.83;9.10;;;6.30;99.90;;;;;;5074686;28;20265;-66
2021/10/27 00:17:13;;;;;;;12.20;9.10;;;6.20;99.90;;;;;;5056495;28;20457;-66
2021/10/27 00:19:39;;;;;;;11.20;7.80;;;6.20;99.90;;;;;;5073747;28;20174;-67
2021/10/27 00:22:05;;;;;;;10.93;8.70;;;6.20;99.90;;;;;;5074397;28;20220;-68
2021/10/27 00:24:30;;;;;;;19.70;8.77;;;6.10;99.90;;;;;;5074662;28;20174;-68
2021/10/27 00:26:56;;;;;;;9.77;8.53;;;6.10;99.90;;;;;;5074087;28;20835;-67
2021/10/27 00:29:22;;;;;;;14.00;9.93;;;6.10;99.90;;;;;;5057494;28;20600;-66
2021/10/27 00:31:48;;;;;;;10.07;7.70;;;6.10;99.90;;;;;;5054552;28;20179;-67
2021/10/27 00:34:13;;;;;;;12.73;8.27;;;6.10;99.90;;;;;;5054469;28;20584;-66
2021/10/27 00:36:39;;;;;;;12.17;8.63;;;6.10;99.90;;;;;;5054540;28;20195;-65
2021/10/27 00:39:06;;;;;;;10.63;8.80;;;6.10;99.90;;;;;;5055265;28;20624;-65
2021/10/27 00:41:32;;;;;;;10.77;9.50;;;6.10;99.90;;;;;;5054230;28;20263;-66
2021/10/27 00:43:58;;;;;;;9.67;8.63;;;6.10;99.90;;;;;;5036176;28;20554;-65
2021/10/27 00:46:25;;;;;;;12.27;8.93;;;6.10;99.90;;;;;;5053662;28;20450;-66
2021/10/27 00:48:51;;;;;;;15.07;8.47;;;6.00;99.90;;;;;;5053925;28;20229;-66
2021/10/27 00:51:18;;;;;;;10.33;8.80;;;6.00;99.90;;;;;;5053751;28;20819;-66
2021/10/27 00:53:46;;;;;;;9.00;8.00;;;6.00;99.90;;;;;;5054020;28;20425;-66
2021/10/27 00:56:13;;;;;;;10.93;9.23;;;6.00;99.90;;;;;;5053857;28;20437;-66
2021/10/27 00:58:39;;;;;;;10.90;8.20;;;6.00;99.90;;;;;;5053610;28;20464;-66
2021/10/27 01:01:05;;;;;;;11.37;8.60;;;6.00;99.90;;;;;;5068328;28;20901;-66
2021/10/27 01:03:32;;;;;;;10.60;8.23;;;6.00;99.90;;;;;;5073464;28;20443;-66
2021/10/27 01:05:58;;;;;;;10.20;8.30;;;5.90;99.90;;;;;;5073378;28;20218;-66
2021/10/27 01:08:24;;;;;;;10.70;8.40;;;6.00;99.90;;;;;;5073300;28;20486;-66
2021/10/27 01:10:50;;;;;;;10.13;8.10;;;6.00;99.90;;;;;;5073394;28;20413;-66
2021/10/27 01:13:16;;;;;;;10.17;8.90;;;5.90;99.90;;;;;;5073786;28;20174;-68
2021/10/27 01:15:42;;;;;;;12.27;9.17;;;5.90;99.90;;;;;;5073685;28;20197;-66
2021/10/27 01:18:09;;;;;;;10.00;8.40;;;5.90;99.90;;;;;;5073420;28;20459;-66
2021/10/27 01:20:35;;;;;;;8.47;7.57;;;5.90;99.90;;;;;;5073256;28;20492;-66
2021/10/27 01:23:01;;;;;;;10.40;7.80;;;5.90;99.90;;;;;;5055420;28;21007;-66
2021/10/27 01:25:27;;;;;;;8.73;7.10;;;5.80;99.90;;;;;;5055099;28;20983;-67
2021/10/27 01:27:56;;;;;;;10.73;8.30;;;5.80;99.90;;;;;;5072071;28;20428;-66
2021/10/27 01:30:23;;;;;;;16.33;9.73;;;5.80;99.90;;;;;;5073183;28;20860;-66
2021/10/27 01:32:50;;;;;;;10.77;7.93;;;5.90;99.90;;;;;;5055288;28;20417;-66
2021/10/27 01:35:17;;;;;;;12.10;8.87;;;5.80;99.90;;;;;;5055175;28;20417;-66
2021/10/27 01:37:43;;;;;;;8.97;7.67;;;5.70;99.90;;;;;;5073033;28;20408;-66
2021/10/27 01:40:12;;;;;;;12.37;9.53;;;5.70;99.90;;;;;;5069190;28;20432;-66
2021/10/27 01:42:39;;;;;;;15.23;8.77;;;5.70;99.90;;;;;;5072833;28;20425;-66
2021/10/27 01:45:05;;;;;;;13.03;8.63;;;5.60;99.90;;;;;;5073351;28;20413;-66
2021/10/27 01:47:32;;;;;;;12.17;8.27;;;5.70;99.90;;;;;;5073179;28;20472;-66
2021/10/27 01:49:58;;;;;;;11.57;7.97;;;5.60;99.90;;;;;;5073227;28;20416;-66
2021/10/27 01:52:24;;;;;;;10.40;8.10;;;5.60;99.90;;;;;;5073078;28;20414;-66
2021/10/27 01:54:50;;;;;;;10.10;8.70;;;5.60;99.90;;;;;;5054879;28;20699;-66
2021/10/27 01:57:15;;;;;;;9.50;7.57;;;5.60;99.90;;;;;;5072974;28;20277;-66
2021/10/27 01:59:41;;;;;;;9.33;7.60;;;5.60;99.90;;;;;;5072933;28;20188;-66
2021/10/27 02:02:07;;;;;;;8.77;7.47;;;5.60;99.90;;;;;;5072806;28;20894;-66
2021/10/27 02:04:33;;;;;;;11.37;7.40;;;5.50;99.90;;;;;;5072848;28;20296;-66
2021/10/27 02:07:00;;;;;;;9.33;8.37;;;5.50;99.90;;;;;;5054587;28;20206;-66
2021/10/27 02:09:26;;;;;;;8.90;8.00;;;5.50;99.90;;;;;;5072872;28;20162;-65
2021/10/27 02:11:52;;;;;;;9.40;7.63;;;5.50;99.90;;;;;;5054776;28;20467;-65
2021/10/27 02:14:18;;;;;;;9.87;8.33;;;5.50;99.90;;;;;;5072699;28;20432;-65
2021/10/27 02:16:44;;;;;;;12.03;7.40;;;5.40;99.90;;;;;;5072648;28;20190;-66
2021/10/27 02:19:10;;;;;;;12.03;7.87;;;5.40;99.90;;;;;;5072766;28;20416;-66
2021/10/27 02:21:36;;;;;;;8.77;7.30;;;5.40;99.90;;;;;;5073045;28;20544;-66
2021/10/27 02:24:02;;;;;;;9.27;7.40;;;5.40;99.90;;;;;;5072716;28;20579;-66
2021/10/27 02:26:28;;;;;;;10.77;8.47;;;5.50;99.90;;;;;;5072568;28;20495;-66
2021/10/27 02:28:54;;;;;;;8.80;7.60;;;5.40;99.90;;;;;;5054063;28;20454;-66
2021/10/27 02:31:20;;;;;;;9.33;7.57;;;5.40;99.90;;;;;;5072627;28;20241;-66
2021/10/27 02:33:47;;;;;;;9.60;8.07;;;5.40;99.90;;;;;;5072514;28;20173;-66
2021/10/27 02:36:14;;;;;;;9.70;7.90;;;5.30;99.90;;;;;;5072653;28;20486;-66
2021/10/27 02:38:41;;;;;;;9.27;7.80;;;5.30;99.90;;;;;;5072496;28;20408;-66
2021/10/27 02:41:08;;;;;;;11.63;7.50;;;5.30;99.90;;;;;;5072541;28;20400;-66
2021/10/27 02:43:33;;;;;;;9.60;7.40;;;5.30;99.90;;;;;;5075613;28;20780;-66
2021/10/27 02:45:59;;;;;;;12.63;8.23;;;5.30;99.90;;;;;;5076272;28;20460;-66
2021/10/27 02:48:25;;;;;;;9.87;7.97;;;5.30;99.90;;;;;;5076103;28;20197;-66
2021/10/27 02:50:51;;;;;;;8.80;7.67;;;5.30;99.90;;;;;;5076249;28;20178;-66
2021/10/27 02:53:16;;;;;;;10.80;7.90;;;5.30;99.90;;;;;;5075996;28;20159;-66
2021/10/27 02:55:42;;;;;;;11.37;7.40;;;5.30;99.90;;;;;;5058055;28;20222;-66
2021/10/27 02:58:08;;;;;;;9.03;7.17;;;5.20;99.90;;;;;;5075969;28;20187;-66
2021/10/27 03:00:33;;;;;;;8.50;6.70;;;5.20;99.90;;;;;;5076010;28;20173;-66
2021/10/27 03:02:59;;;;;;;10.07;7.70;;;5.20;99.90;;;;;;5076016;28;20174;-66
2021/10/27 03:05:25;;;;;;;10.20;6.47;;;5.20;99.90;;;;;;5075954;28;20216;-66
2021/10/27 03:07:51;;;;;;;8.27;7.40;;;5.20;99.90;;;;;;5076184;28;20667;-66
2021/10/27 03:10:17;;;;;;;10.17;7.10;;;5.20;99.90;;;;;;5057955;28;20420;-66
2021/10/27 03:12:43;;;;;;;9.63;7.23;;;5.20;99.90;;;;;;5062441;28;20258;-66
2021/10/27 03:15:10;;;;;;;7.27;6.30;;;5.20;99.90;;;;;;5075607;28;20393;-66
2021/10/27 03:17:36;;;;;;;8.80;7.43;;;5.20;99.90;;;;;;5074228;28;20960;-66
2021/10/27 03:20:03;;;;;;;7.97;7.00;;;5.20;99.90;;;;;;5075551;28;20417;-66
2021/10/27 03:22:28;;;;;;;9.90;7.50;;;5.10;99.90;;;;;;5075600;28;20228;-66
2021/10/27 03:24:54;;;;;;;8.00;6.67;;;5.10;99.90;;;;;;5075527;28;20413;-66
2021/10/27 03:27:20;;;;;;;8.47;6.47;;;5.10;99.90;;;;;;5067951;22;20759;-84
2021/10/27 03:29:45;;;;;;;8.60;6.60;;;5.10;99.90;;;;;;5064523;28;20175;-84
2021/10/27 03:32:13;;;;;;;8.00;6.67;;;5.10;99.90;;;;;;5063601;28;20187;-84
2021/10/27 03:34:39;;;;;;;8.40;6.60;;;5.10;99.90;;;;;;5063447;28;20162;-84
2021/10/27 03:37:06;;;;;;;8.53;6.80;;;5.20;99.90;;;;;;5063436;28;20406;-84
2021/10/27 03:39:32;;;;;;;11.60;6.10;;;5.20;99.90;;;;;;5045137;28;20432;-84
2021/10/27 03:41:58;;;;;;;7.07;6.37;;;5.10;99.90;;;;;;5065409;28;20430;-84
2021/10/27 03:44:23;;;;;;;8.30;6.20;;;5.10;99.90;;;;;;5064732;28;20222;-83
2021/10/27 03:46:51;;;;;;;9.10;6.90;;;5.00;99.90;;;;;;5064043;28;20202;-84
2021/10/27 03:49:20;;;;;;;10.60;7.03;;;5.00;99.90;;;;;;5045362;28;20171;-84
2021/10/27 03:51:46;;;;;;;6.93;6.23;;;5.00;99.90;;;;;;5045997;28;20441;-83
2021/10/27 03:54:13;;;;;;;8.10;6.53;;;5.00;99.90;;;;;;5062068;28;20405;-84
2021/10/27 03:56:39;;;;;;;10.40;6.80;;;5.00;99.90;;;;;;5072217;28;20509;-84
2021/10/27 03:59:05;;;;;;;10.03;7.43;;;5.00;99.90;;;;;;5044862;28;20914;-84
2021/10/27 04:01:31;;;;;;;5.77;4.93;;;4.90;99.90;;;;;;5062960;28;20345;-83
2021/10/27 04:03:57;;;;;;;10.20;5.83;;;4.90;99.90;;;;;;5044245;28;20155;-83
2021/10/27 04:06:23;;;;;;;6.60;5.37;;;5.00;99.90;;;;;;5044720;28;20445;-84
2021/10/27 04:08:48;;;;;;;5.80;4.97;;;5.10;99.90;;;;;;5046998;28;20409;-83
2021/10/27 04:11:14;;;;;;;6.03;4.93;;;5.20;99.90;;;;;;5045026;28;20256;-84
2021/10/27 04:13:40;;;;;;;7.50;5.70;;;5.10;99.90;;;;;;5045175;28;20180;-84
2021/10/27 04:16:06;;;;;;;5.70;4.90;;;4.90;99.90;;;;;;5076766;28;20820;-83
2021/10/27 04:18:32;;;;;;;6.10;4.67;;;4.90;99.90;;;;;;5056110;28;20942;-84
2021/10/27 04:20:58;;;;;;;7.60;5.20;;;4.80;99.90;;;;;;5045971;28;20474;-83
2021/10/27 04:23:24;;;;;;;7.60;5.20;;;4.80;99.90;;;;;;5062916;28;20183;-84
2021/10/27 04:25:50;;;;;;;5.77;5.17;;;4.90;99.90;;;;;;5062052;28;20472;-84
2021/10/27 04:28:16;;;;;;;6.33;4.97;;;4.90;99.90;;;;;;5062232;28;20409;-84
2021/10/27 04:30:42;;;;;;;5.60;4.20;;;4.80;99.90;;;;;;5063070;28;20798;-84
2021/10/27 04:33:16;;;;;;;8.00;4.83;;;4.80;99.90;;;;;;5061304;28;20202;-84
2021/10/27 04:35:42;;;;;;;10.00;4.57;;;4.70;99.90;;;;;;5060763;28;20187;-84
2021/10/27 04:38:07;;;;;;;5.57;4.87;;;4.70;99.90;;;;;;5060718;28;20414;-84
2021/10/27 04:40:33;;;;;;;8.00;6.40;;;4.70;99.90;;;;;;5060536;28;20182;-83
2021/10/27 04:42:59;;;;;;;5.87;5.07;;;4.70;99.90;;;;;;5062474;28;20583;-83
2021/10/27 04:45:25;;;;;;;6.13;5.17;;;4.70;99.90;;;;;;5061631;28;20175;-83
2021/10/27 04:47:51;;;;;;;8.50;5.53;;;4.60;99.90;;;;;;5060832;28;20167;-84
2021/10/27 04:50:17;;;;;;;5.00;4.50;;;4.60;99.90;;;;;;5061366;28;20444;-83
2021/10/27 04:52:43;;;;;;;6.67;5.57;;;4.60;99.90;;;;;;5062061;28;20195;-83
2021/10/27 04:55:09;;;;;;;9.23;6.60;;;4.60;99.90;;;;;;5060936;28;20418;-84
2021/10/27 04:57:35;;;;;;;11.47;7.33;;;4.70;99.90;;;;;;5064775;28;20489;-83
2021/10/27 05:00:00;;;;;;;14.00;9.57;;;4.70;99.90;;;;;;5055621;28;20175;-83
2021/10/27 05:02:26;;;;;;;10.67;7.17;;;4.70;99.90;;;;;;5074915;28;20195;-83
2021/10/27 05:04:52;;;;;;;11.57;8.10;;;4.70;99.90;;;;;;5045021;28;20176;-84
2021/10/27 05:07:18;;;;;;;7.57;6.63;;;4.70;99.90;;;;;;5044065;28;20258;-84
2021/10/27 05:09:44;;;;;;;7.10;5.80;;;4.70;99.90;;;;;;5044675;28;20168;-84
2021/10/27 05:12:11;;;;;;;5.77;5.17;;;4.70;99.90;;;;;;5062250;28;20426;-84
2021/10/27 05:14:41;;;;;;;7.37;5.50;;;4.80;99.90;;;;;;5062796;28;20964;-84
2021/10/27 05:17:12;;;;;;;6.60;5.43;;;4.80;99.90;;;;;;5044672;28;20410;-84
2021/10/27 05:19:40;;;;;;;7.03;5.60;;;4.70;99.90;;;;;;5062223;28;20398;-84
2021/10/27 05:22:07;;;;;;;8.20;6.30;;;4.60;99.90;;;;;;5062252;28;20425;-84
2021/10/27 05:24:33;;;;;;;6.90;5.03;;;4.60;99.90;;;;;;5043996;28;20433;-84
2021/10/27 05:26:59;;;;;;;9.00;5.10;;;4.70;99.90;;;;;;5044267;28;20462;-84
2021/10/27 05:29:25;;;;;;;7.50;5.03;;;4.70;99.90;;;;;;5044933;28;20414;-83
2021/10/27 05:31:50;;;;;;;6.00;4.63;;;4.70;99.90;;;;;;5062297;28;20188;-84
2021/10/27 05:34:16;;;;;;;6.63;4.47;;;4.70;99.90;;;;;;5044093;28;20877;-84
2021/10/27 05:36:43;;;;;;;11.60;5.30;;;4.70;99.90;;;;;;5044155;28;20469;-84
2021/10/27 05:39:11;;;;;;;7.53;5.30;;;4.60;99.90;;;;;;5060402;28;20405;-84
2021/10/27 05:41:40;;;;;;;7.13;6.20;;;4.60;99.90;;;;;;5059367;28;20457;-84
2021/10/27 05:44:05;;;;;;;7.93;6.17;;;4.60;99.90;;;;;;5059839;28;20425;-83
2021/10/27 05:46:31;;;;;;;6.23;4.87;;;4.70;99.90;;;;;;5058868;28;20449;-84
2021/10/27 05:49:10;;;;;;;6.77;4.47;;;4.70;99.90;;;;;;5058049;28;20171;-83
2021/10/27 05:51:46;;;;;;;5.67;4.30;;;4.70;99.90;;;;;;5058779;28;20206;-84
2021/10/27 05:56:57;;;;;;;7.60;5.43;;;4.80;99.90;;;;;;5074475;28;20408;-83
2021/10/27 05:59:23;;;;;;;7.13;5.50;;;4.80;99.90;;;;;;5063761;28;20406;-85
2021/10/27 06:01:49;;;;;;;6.70;5.80;;;4.70;99.90;;;;;;5041719;28;20437;-85
2021/10/27 06:04:18;;;;;;;9.50;6.67;;;4.60;99.90;;;;;;5059467;28;20176;-84
2021/10/27 06:06:45;;;;;;;6.73;5.10;;;4.60;99.90;;;;;;5041250;28;20526;-84
2021/10/27 06:09:12;;;;;;;12.03;6.30;;;4.60;99.90;;;;;;5060343;28;20429;-84
2021/10/27 06:11:38;;;;;;;6.33;4.83;;;4.60;99.90;;;;;;5059361;28;20929;-84
2021/10/27 06:14:04;;;;;;;8.03;5.70;;;4.70;99.90;;;;;;5041074;28;20418;-84
2021/10/27 06:16:30;;;;;;;6.63;5.53;;;4.70;99.90;;;;;;5059310;28;20410;-84
2021/10/27 06:18:57;;;;;;;7.80;5.77;;;4.70;99.90;;;;;;5062308;28;20445;-84
2021/10/27 06:21:23;;;;;;;9.00;5.50;;;4.70;99.90;;;;;;5061929;28;20441;-84
2021/10/27 06:23:50;;;;;;;7.50;5.63;;;4.80;99.90;;;;;;5061558;28;20421;-84
2021/10/27 06:26:20;;;;;;;9.40;6.40;;;4.80;99.90;;;;;;5044277;28;20468;-84
2021/10/27 06:28:58;;;;;;;11.13;6.20;;;4.80;99.90;;;;;;5062820;28;20417;-84
2021/10/27 06:31:50;;;;;;;6.60;5.73;;;4.80;99.90;;;;;;5061886;28;20437;-84
2021/10/27 06:34:33;;;;;;;9.13;6.63;;;4.80;99.90;;;;;;5063199;28;20902;-84
2021/10/27 06:37:22;;;;;;;9.47;5.57;;;4.80;99.90;;;;;;5062588;28;20425;-84
2021/10/27 06:48:00;;;;;;;7.80;5.53;;;5.00;99.90;;;;;;5071749;28;20435;-83
2021/10/27 06:50:25;;;;;;;8.60;5.17;;;5.10;99.90;;;;;;5080437;28;20421;-85
2021/10/27 06:52:51;;;;;;;10.97;5.70;;;5.10;99.90;;;;;;5081420;28;20197;-85
2021/10/27 06:55:17;;;;;;;6.40;5.50;;;5.20;99.90;;;;;;5061648;28;20261;-84
2021/10/27 06:57:43;;;;;;;7.83;4.93;;;5.30;99.90;;;;;;5081202;28;20167;-85
2021/10/27 07:16:11;;;;;;;9.03;6.57;;;6.20;99.90;;;;;;5073925;28;20443;-84
2021/10/27 07:18:37;;;;;;;11.70;5.00;;;6.40;99.90;;;;;;5070995;28;20425;-83
2021/10/27 07:21:04;;;;;;;8.43;5.20;;;6.50;99.90;;;;;;5066016;28;20483;-83
2021/10/27 07:23:29;;;;;;;8.13;4.87;;;6.60;99.90;;;;;;5076204;28;20201;-84
2021/10/27 07:25:59;;;;;;;8.43;5.23;;;6.70;99.90;;;;;;5060578;28;20972;-84
2021/10/27 07:28:26;;;;;;;6.43;4.57;;;6.80;99.90;;;;;;5056746;28;20182;-84
2021/10/27 07:30:56;;;;;;;12.00;5.40;;;6.80;99.90;;;;;;5076000;28;20534;-83
2021/10/27 07:33:22;;;;;;;8.87;5.23;;;6.80;99.90;;;;;;5078525;28;20413;-83
2021/10/27 07:35:55;;;;;;;7.47;5.20;;;6.90;99.90;;;;;;5075938;28;20920;-84
2021/10/27 07:41:06;;;;;;;6.73;5.20;;;7.00;99.90;;;;;;5077760;28;20444;-85
2021/10/27 07:43:32;;;;;;;12.10;5.70;;;7.10;99.90;;;;;;5062140;28;20425;-83
2021/10/27 07:46:01;;;;;;;10.30;6.27;;;7.20;99.90;;;;;;5079895;28;20456;-82
2021/10/27 07:48:27;;;;;;;10.00;5.70;;;;;;;;;;5059115;28;20421;-83
2021/10/27 07:50:54;;;;;;;7.17;4.70;;;;;;;;;;5079946;28;20922;-83
2021/10/27 07:53:22;;;;;;;8.00;4.87;;;;;;;;;;5061748;28;20410;-84
2021/10/27 07:55:52;;;;;;;9.63;5.93;;;;;;;;;;5070137;28;20912;-84
2021/10/27 07:58:18;;;;;;;5.73;4.80;;;;;;;;;;5054554;28;20425;-85
2021/10/27 08:00:47;;;;;;;7.30;5.43;;;;;;;;;;5079489;28;20504;-83
2021/10/27 08:03:13;;;;;;;12.20;5.53;;;;;;;;;;5061434;28;20417;-83
2021/10/27 08:05:41;;;;;;;6.93;5.00;;;;;;;;;;5060952;28;20409;-84
2021/10/27 08:08:07;;;;;;;6.23;5.17;;;;;;;;;;5078904;28;20420;-84
2021/10/27 08:10:34;;;;;;;9.83;5.10;;;;;;;;;;5058618;28;20927;-84
2021/10/27 08:13:01;;;;;;;7.43;5.50;;;;;;;;;;5062061;28;20437;-84
2021/10/27 08:15:27;;;;;;;9.83;5.70;;;;;;;;;;5055049;28;20436;-85
2021/10/27 08:17:54;;;;;;;10.80;5.63;;;;;;;;;;5060433;28;20454;-84
2021/10/27 08:20:21;;;;;;;7.50;4.90;;;;;;;;;;5077959;28;20417;-84
2021/10/27 08:22:53;;;;;;;12.30;5.90;;;;;;;;;;5058534;28;20925;-84
2021/10/27 08:25:30;;;;;;;6.10;4.63;;;;;;;;;;5077181;28;20409;-85
2021/10/27 08:28:06;;;;;;;8.27;4.70;;;;;;;;;;5077197;28;20425;-84
2021/10/27 08:33:25;;;;;;;5.73;4.70;;;;;;;;;;5080398;28;20420;-83
2021/10/27 08:35:51;;;;;;;11.10;6.20;;;;;;;;;;5049594;28;20440;-82
2021/10/27 08:38:17;;;;;;;5.13;4.47;;;;;;;;;;5076501;28;20424;-82
2021/10/27 08:40:44;;;;;;;6.23;4.83;;;;;;;;;;5058067;28;20433;-83
2021/10/27 08:43:11;;;;;;;4.77;4.13;;;;;;;;;;5076224;28;20500;-82
2021/10/27 08:45:38;;;;;;;11.00;5.37;;;;;;;;;;5074899;28;20421;-83
2021/10/27 08:48:07;;;;;;;6.97;4.30;;;;;;;;;;5073554;28;20450;-83
2021/10/27 08:50:33;;;;;;;5.50;4.10;;;;;;;;;;5076723;28;20491;-83
2021/10/27 08:53:01;;;;;;;9.70;4.47;;;;;;;;;;5059967;28;20509;-83
2021/10/27 08:55:27;;;;;;;8.53;5.33;;;;;;;;;;5059768;28;20466;-84
2021/10/27 08:57:54;;;;;;;18.13;7.70;;;;;;;;;;5060244;28;20421;-83
2021/10/27 09:00:25;;;;;;;6.47;5.80;;;;;;;;;;5078378;28;20432;-84
2021/10/27 09:05:44;;;;;;;12.93;5.83;;;;;;;;;;5094696;28;20425;-82
2021/10/27 09:44:06;;;;;;;10.13;7.60;;;;;;;;;;5072525;28;20412;-85
2021/10/27 10:05:39;;;;;;;7.33;6.53;;;;;;;;;;5074468;28;20423;-86
2021/10/27 10:08:06;;;;;;;14.43;7.40;;;;;;;;;;5076463;28;20442;-85
2021/10/27 10:10:35;;;;;;;8.40;6.73;;;;;;;;;;5075368;28;20417;-85
2021/10/27 10:13:02;;;;;;;9.97;6.80;;;;;;;;;;5074068;28;20467;-85
2021/10/27 10:15:36;;;;;;;11.93;7.17;;;;;;;;;;5077508;28;20511;-84
2021/10/27 10:18:03;;;;;;;9.10;7.57;;;;;;;;;;5056886;28;20844;-85
2021/10/27 10:20:29;;;;;;;9.50;6.80;;;;;;;;;;5058672;28;20449;-85
2021/10/27 10:22:55;;;;;;;6.60;5.50;;;;;;;;;;5058603;28;20456;-84
2021/10/27 10:25:28;;;;;;;10.90;6.80;;;;;;;;;;5059849;28;20436;-84
2021/10/27 10:27:58;;;;;;;10.30;6.47;;;;;;;;;;5060682;28;20424;-84
2021/10/27 10:30:38;;;;;;;7.50;5.80;;;;;;;;;;5077008;28;20431;-83
2021/10/27 10:33:10;;;;;;;8.70;5.80;;;;;;;;;;5063842;28;20444;-83
2021/10/27 10:36:02;;;;;;;9.30;5.57;;;;;;;;;;5058312;28;20421;-85
2021/10/27 10:41:59;;;;;;;9.07;5.90;;;;;;;;;;5048434;28;20429;-85
2021/10/27 11:22:30;;;;;;;11.57;6.30;;;;;;;;;;5082535;28;20405;-83
2021/10/27 11:37:47;;;;;;;10.20;6.90;;;;;;;;;;5078638;28;20807;-83
2021/10/27 11:40:29;;;;;;;7.50;6.17;;;;;;;;;;5075331;28;20417;-83
2021/10/27 11:43:53;;;;;;;8.73;5.80;;;;;;;;;;5079304;28;20441;-84
2021/10/27 11:48:26;;;;;;;10.47;6.37;;;;;;;;;;5080228;28;20405;-84
2021/10/27 11:50:53;;;;;;;8.93;5.80;;;;;;;;;;5070895;28;20461;-83
2021/10/27 11:53:33;;;;;;;8.30;5.70;;;;;;;;;;5084504;28;20514;-84
2021/10/27 11:56:09;;;;;;;8.53;6.40;;;;;;;;;;5078818;28;20786;-84
2021/10/27 11:58:40;;;;;;;8.90;7.10;;;;;;;;;;5053182;28;20428;-85
2021/10/27 12:01:07;;;;;;;10.33;6.00;;;;;;;;;;5080147;28;20432;-84
2021/10/27 12:03:37;;;;;;;9.07;5.73;;;;;;;;;;5061456;28;20459;-83
2021/10/27 12:06:14;;;;;;;7.57;6.03;;;;;;;;;;5078208;28;20853;-84
2021/10/27 12:19:19;;;;;;;7.17;5.77;;;;;;;;;;5082186;28;20403;-85
2021/10/27 12:21:53;;;;;;;8.63;6.83;;;;;;;;;;5080797;28;20432;-84
2021/10/27 12:24:21;;;;;;;15.17;6.97;;;;;;;;;;5062529;28;20416;-85
2021/10/27 12:26:50;;;;;;;8.30;5.87;;;;;;;;;;5060708;28;20464;-85
2021/10/27 12:29:26;;;;;;;7.03;6.03;;;;;;;;;;5062083;28;20483;-85
2021/10/27 12:32:07;;;;;;;6.67;5.40;;;;;;;;;;5061549;28;20428;-85
2021/10/27 12:34:41;;;;;;;8.30;5.77;;;;;;;;;;5061952;28;20527;-86
2021/10/27 12:37:33;;;;;;;9.30;6.70;;;;;;;;;;5060430;28;20424;-84
2021/10/27 12:40:22;;;;;;;7.50;6.17;;;;;;;;;;5058275;28;20439;-85
2021/10/27 12:43:18;;;;;;;7.23;5.47;;;;;;;;;;5076440;28;20500;-85
2021/10/27 12:45:49;;;;;;;9.40;6.67;;;;;;;;;;5045759;28;20516;-84
2021/10/27 12:48:19;;;;;;;11.27;6.63;;;;;;;;;;5061080;28;20413;-84
2021/10/27 12:50:53;;;;;;;9.23;6.87;;;;;;;;;;5078902;28;20392;-84
2021/10/27 12:53:29;;;;;;;11.33;6.73;;;;;;;;;;5079408;28;20421;-85
2021/10/27 12:56:13;;;;;;;10.23;6.90;;;;;;;;;;5061375;28;20415;-86
2021/10/27 12:58:43;;;;;;;7.70;6.23;;;;;;;;;;5088506;28;20485;-86
2021/10/27 13:07:16;;;;;;;10.03;6.53;;;;;;;;;;5076835;28;20448;-86
2021/10/27 13:20:31;;;;;;;9.27;7.53;;;;;;;;;;5076115;28;20775;-84
2021/10/27 13:23:12;;;;;;;9.97;6.50;;;;;;;;;;5057843;28;20440;-85
2021/10/27 13:31:11;;;;;;;9.10;7.03;;;;;;;;;;5077231;28;20489;-85
2021/10/27 13:33:37;;;;;;;10.27;7.07;;;;;;;;;;5076046;28;20463;-86
2021/10/27 13:36:04;;;;;;;9.30;7.00;;;;;;;;;;5075805;28;20421;-86
2021/10/27 13:38:36;;;;;;;7.57;6.33;;;;;;;;;;5076425;28;20466;-85
2021/10/27 13:41:04;;;;;;;8.43;5.93;;;;;;;;;;5053737;28;20922;-86
2021/10/27 13:43:38;;;;;;;10.27;6.43;;;;;;;;;;5056987;28;20428;-85
2021/10/27 13:48:59;;;;;;;8.33;7.00;;;;;;;;;;5077800;28;20443;-83
2021/10/27 14:07:44;;;;;;;13.77;6.70;;;;;;;;;;5079763;28;20467;-85
2021/10/27 14:10:17;;;;;;;9.13;6.83;;;;;;;;;;5080062;28;20393;-86
2021/10/27 14:12:49;;;;;;;8.80;6.70;;;;;;;;;;5078961;28;20432;-84
2021/10/27 15:21:09;;;;;;;10.43;9.17;;;13.10;99.90;;;;;;5079871;28;20431;-86
2021/10/27 15:23:18;;;;;;;11.90;8.20;;;12.90;99.90;;;;;;5069739;28;20508;-85
2021/10/27 15:25:51;;;;;;;14.70;8.90;;;12.90;99.90;;;;;;5061478;28;20445;-85
2021/10/27 15:36:24;;;;;;;16.20;10.70;;;12.80;99.90;;;;;;5084734;28;20764;-86
2021/10/27 15:52:15;;;;;;;18.73;14.90;;;12.20;99.90;;;;;;5081278;28;20525;-87
2021/10/27 15:54:43;;;;;;;18.30;14.73;;;12.00;99.90;;;;;;5085984;28;20495;-87
2021/10/27 15:57:10;;;;;;;16.87;14.30;;;12.00;99.90;;;;;;5087439;22;20538;-67
2021/10/27 15:59:37;;;;;;;19.30;16.10;;;12.00;99.90;;;;;;5060290;28;20857;-65
2021/10/27 16:02:04;;;;;;;24.87;18.10;;;11.80;99.90;;;;;;5074108;28;20897;-66
2021/10/27 16:04:30;;;;;;;20.93;16.70;;;11.70;99.90;;;;;;5074933;28;20999;-65
2021/10/27 16:06:56;;;;;;;22.37;16.77;;;11.50;99.90;;;;;;5074525;28;20456;-64
2021/10/27 16:09:36;;;;;;;25.10;17.80;;;11.50;99.90;;;;;;5074793;28;20496;-64
2021/10/27 16:12:02;;;;;;;24.63;19.03;;;11.40;99.90;;;;;;5074778;28;20458;-65
2021/10/27 16:14:28;;;;;;;25.03;19.80;;;11.30;99.90;;;;;;5074643;28;20397;-64
2021/10/27 16:16:54;;;;;;;29.50;19.27;;;11.20;99.90;;;;;;5074723;28;20432;-64
2021/10/27 16:19:20;;;;;;;28.10;22.47;;;11.20;99.90;;;;;;5074726;28;20915;-66
2021/10/27 16:21:46;;;;;;;31.30;20.83;;;11.20;99.90;;;;;;5074299;28;20227;-66
2021/10/27 16:24:12;;;;;;;25.07;20.57;;;11.20;99.90;;;;;;5074054;28;20409;-66
2021/10/27 16:26:38;;;;;;;27.27;22.40;;;11.00;99.90;;;;;;5074405;28;20816;-65
2021/10/27 16:29:04;;;;;;;29.20;22.40;;;10.90;99.90;;;;;;5074569;28;20397;-65
2021/10/27 16:31:31;;;;;;;35.20;24.73;;;10.90;99.90;;;;;;5074245;28;20435;-66
2021/10/27 16:33:58;;;;;;;30.33;23.50;;;10.80;99.90;;;;;;5074157;28;20175;-65
2021/10/27 16:36:24;;;;;;;27.43;22.67;;;10.70;99.90;;;;;;5073812;28;21123;-65
2021/10/27 16:38:50;;;;;;;30.33;22.53;;;10.60;99.90;;;;;;5073915;28;20484;-65
2021/10/27 16:41:16;;;;;;;33.90;23.70;;;10.60;99.90;;;;;;5075470;28;20545;-64
2021/10/27 16:43:43;;;;;;;31.20;24.30;;;10.50;99.90;;;;;;5065740;28;20443;-65
2021/10/27 16:46:09;;;;;;;29.80;23.70;;;10.50;99.90;;;;;;5054188;28;20563;-65
2021/10/27 16:48:35;;;;;;;45.43;23.80;;;10.30;99.90;;;;;;5060850;28;20405;-65
2021/10/27 16:51:01;;;;;;;37.23;25.57;;;10.30;99.90;;;;;;5073615;28;20411;-65
2021/10/27 16:53:27;;;;;;;37.70;25.40;;;10.20;99.90;;;;;;5074116;28;20224;-66
2021/10/27 16:55:54;;;;;;;34.77;27.43;;;10.00;99.90;;;;;;5073491;28;20485;-65
2021/10/27 16:58:20;;;;;;;33.20;26.17;;;10.10;99.90;;;;;;5071942;28;20912;-65
2021/10/27 17:00:46;;;;;;;35.20;26.33;;;10.00;99.90;;;;;;5073120;28;20451;-65
2021/10/27 17:03:12;;;;;;;39.60;30.10;;;9.90;99.90;;;;;;5073764;28;20920;-66
2021/10/27 17:05:39;;;;;;;36.00;26.43;;;10.00;99.90;;;;;;5073874;28;20179;-66
2021/10/27 17:08:08;;;;;;;34.60;27.10;;;9.90;99.90;;;;;;5073403;28;20504;-66
2021/10/27 17:10:34;;;;;;;36.20;26.53;;;9.80;99.90;;;;;;5073723;28;20427;-66
2021/10/27 17:12:59;;;;;;;38.50;27.63;;;9.70;99.90;;;;;;5073228;28;20397;-65
2021/10/27 17:15:25;;;;;;;46.77;28.60;;;9.60;99.90;;;;;;5073574;28;20241;-65
2021/10/27 17:17:50;;;;;;;43.17;30.10;;;9.50;99.90;;;;;;5073541;28;20182;-65
2021/10/27 17:20:19;;;;;;;38.87;28.80;;;9.50;99.90;;;;;;5073164;28;20173;-65
2021/10/27 17:22:46;;;;;;;45.17;31.00;;;9.40;99.90;;;;;;5073409;28;20174;-66
2021/10/27 17:25:15;;;;;;;40.93;28.50;;;9.40;99.90;;;;;;5073212;28;20488;-64
2021/10/27 17:27:42;;;;;;;46.20;33.23;;;9.40;99.90;;;;;;5072741;28;20913;-65
2021/10/27 17:30:11;;;;;;;45.57;29.93;;;9.20;99.90;;;;;;5072995;28;20409;-65
2021/10/27 17:32:39;;;;;;;42.83;28.53;;;9.20;99.90;;;;;;5073136;28;20499;-64
2021/10/27 17:35:09;;;;;;;47.13;31.27;;;9.20;99.90;;;;;;5072813;28;20412;-64
2021/10/27 17:37:35;;;;;;;46.10;31.90;;;9.20;99.90;;;;;;5072868;28;20935;-64
2021/10/27 17:40:10;;;;;;;49.80;33.93;;;9.20;99.90;;;;;;5054564;28;20490;-66
2021/10/27 17:42:37;;;;;;;48.83;32.77;;;9.20;99.90;;;;;;5073038;28;20158;-65
2021/10/27 17:45:03;;;;;;;55.10;32.43;;;9.10;99.90;;;;;;5072606;28;20404;-64
2021/10/27 17:47:35;;;;;;;48.83;33.60;;;9.10;99.90;;;;;;5072693;28;20452;-65
2021/10/27 17:52:33;;;;;;;47.03;32.83;;;8.90;99.90;;;;;;5072724;28;20486;-64
2021/10/27 17:58:23;;;;;;;65.63;34.83;;;8.80;99.90;;;;;;5073158;28;20432;-65
2021/10/27 18:00:35;;;;;;;55.30;34.27;;;8.70;99.90;;;;;;5072592;28;20401;-64
2021/10/27 18:03:00;;;;;;;50.93;36.17;;;8.60;99.90;;;;;;5072668;28;20397;-64
2021/10/27 18:05:26;;;;;;;62.13;37.43;;;8.50;99.90;;;;;;5069608;28;20520;-66
2021/10/27 18:07:52;;;;;;;57.33;37.00;;;8.40;99.90;;;;;;5071749;28;20202;-65
2021/10/27 18:10:18;;;;;;;50.07;33.27;;;8.40;99.90;;;;;;5072367;28;20491;-64